KRWI

Rocky Mount-Wilson Regional Airport

Rocky Mount, North Carolina, USA
METAR KRWI 181653Z AUTO 28006KT 10SM CLR M02/M08 A3026 RMK AO2 SLP250 T10221083
Observed Flight Rules
Jan-18 @ 16:53 UTC (14 hours ago) Visual Flight Rules
Wind Visibility Clouds
280° at 6 knots 10 miles
  • Clear skies
Temperatures Readings
Current -2°C / 28°F
Dewpoint -8°C / 18°F
Humidity 64%
Altimeter 30.26" Hg
Pressure 1025 hPa
Elevation 47
METAR KRWI 181653Z AUTO 28006KT 10SM CLR M02/M08 A3026 RMK AO2 SLP250 T10221083
Observed Flight Rules
Jan-18 @ 16:53 UTC
(14 hours ago)
VFR
Wind Visibility
280° at 6 knots 10 miles
Clouds
  • Clear skies
Temperature Dewpoint
-2°C / 28°F -8°C / 18°F
Humidity Altimeter Pressure
64% 30.26" Hg 1025 hPa